Terminal Aerodrome Forecast
Issued by NWS Rapid City, SD

Home | Current Version | Previous Version | Text Only | Print | Product List | Glossary Off
Versions: 1 2 3 4 5 6 7 8 9 10 11 12 13 14 15 16 17

000
FTUS43 KUNR 251720
TAFRAP
TAF
KRAP 251720Z 2518/2618 18014KT P6SM SCT250
     FM260200 34012KT P6SM BKN200
     FM260400 34028G38KT P6SM BKN080
     FM261200 34020G30KT P6SM BKN060=

USA.gov is the U.S. government's official web portal to all federal, state and local government web resources and services.